Time;durP1;ratioP1;P1;durP2;ratioP2;P2;SDS_P1;SDS_P2;PMS_P1;PMS_P2;Temp;Humidity;BMP_temperature;BMP_pressure;BME280_temperature;BME280_humidity;BME280_pressure;Samples;Min_cycle;Max_cycle;Signal;HPM_P1;HPM_P2
2023/06/10 00:00:07;;;;;;;6.37;5.60;;;15.00;99.90;;;;;;5113527;28;20213;-77
2023/06/10 00:02:35;;;;;;;6.17;5.57;;;15.00;99.90;;;;;;5112978;28;20235;-78
2023/06/10 00:05:04;;;;;;;6.00;5.40;;;15.00;99.90;;;;;;5113184;28;20266;-79
2023/06/10 00:07:37;;;;;;;6.47;5.67;;;15.00;99.90;;;;;;5111984;28;20290;-78
2023/06/10 00:10:06;;;;;;;6.37;5.43;;;15.00;99.90;;;;;;5113390;28;20755;-76
2023/06/10 00:12:37;;;;;;;6.57;5.40;;;14.90;99.90;;;;;;5112895;28;20333;-78
2023/06/10 00:15:07;;;;;;;8.37;5.80;;;14.90;99.90;;;;;;5111796;28;20285;-79
2023/06/10 00:17:38;;;;;;;6.80;6.10;;;14.80;99.90;;;;;;5113096;28;20603;-77
2023/06/10 00:20:11;;;;;;;7.27;6.10;;;14.80;99.90;;;;;;5113166;28;20223;-78
2023/06/10 00:22:45;;;;;;;8.70;6.80;;;14.80;99.90;;;;;;5112573;28;20566;-78
2023/06/10 00:25:13;;;;;;;6.50;5.90;;;14.80;99.90;;;;;;5096218;28;20335;-78
2023/06/10 00:27:42;;;;;;;7.63;6.00;;;14.80;99.90;;;;;;5092664;28;20232;-77
2023/06/10 00:30:11;;;;;;;6.53;5.93;;;14.80;99.90;;;;;;5092290;28;20214;-79
2023/06/10 00:32:39;;;;;;;6.80;6.10;;;14.80;99.90;;;;;;5099252;28;20536;-78
2023/06/10 00:35:08;;;;;;;7.40;6.50;;;14.70;99.90;;;;;;5112384;28;20206;-79
2023/06/10 00:37:37;;;;;;;10.53;6.60;;;14.70;99.90;;;;;;5112655;28;20206;-79
2023/06/10 00:40:09;;;;;;;7.50;6.70;;;14.70;99.90;;;;;;5112412;28;20203;-79
2023/06/10 00:42:37;;;;;;;7.30;6.60;;;14.70;99.90;;;;;;5110934;28;20213;-79
2023/06/10 00:45:06;;;;;;;7.70;7.00;;;14.70;99.90;;;;;;5112520;28;20206;-77
2023/06/10 00:47:36;;;;;;;7.50;6.70;;;14.70;99.90;;;;;;5112432;28;20316;-79
2023/06/10 00:50:06;;;;;;;7.63;6.93;;;14.70;99.90;;;;;;5111345;28;20652;-79
2023/06/10 00:52:36;;;;;;;8.43;7.20;;;14.70;99.90;;;;;;5112124;28;20210;-79
2023/06/10 00:55:07;;;;;;;7.40;6.70;;;14.70;99.90;;;;;;5112348;28;20225;-77
2023/06/10 00:57:37;;;;;;;7.90;7.07;;;14.70;99.90;;;;;;5111620;28;20660;-77
2023/06/10 01:00:08;;;;;;;7.63;6.83;;;14.70;99.90;;;;;;5112374;28;20342;-77
2023/06/10 01:02:36;;;;;;;7.90;7.10;;;14.70;99.90;;;;;;5112357;28;20190;-79
2023/06/10 01:05:05;;;;;;;7.70;7.00;;;14.70;99.90;;;;;;5112408;28;20234;-77
2023/06/10 01:07:38;;;;;;;8.33;7.50;;;14.70;99.90;;;;;;5111286;28;20240;-80
2023/06/10 01:10:17;;;;;;;8.03;7.23;;;14.70;99.90;;;;;;5111932;28;20247;-78
2023/06/10 01:12:51;;;;;;;9.23;7.40;;;14.60;99.90;;;;;;5113008;28;20201;-78
2023/06/10 01:15:21;;;;;;;8.73;7.83;;;14.60;99.90;;;;;;5111136;28;20197;-76
2023/06/10 01:17:57;;;;;;;8.20;7.40;;;14.50;99.90;;;;;;5112668;28;20215;-79
2023/06/10 01:20:28;;;;;;;8.60;7.73;;;14.50;99.90;;;;;;5112045;28;20209;-79
2023/06/10 01:22:58;;;;;;;8.80;7.90;;;14.50;99.90;;;;;;5111938;28;20210;-79
2023/06/10 01:25:28;;;;;;;8.30;7.50;;;14.50;99.90;;;;;;5111001;28;20683;-78
2023/06/10 01:28:03;;;;;;;8.27;7.47;;;14.50;99.90;;;;;;5115040;28;20268;-78
2023/06/10 01:30:37;;;;;;;8.53;7.73;;;14.40;99.90;;;;;;5115951;28;20698;-77
2023/06/10 01:33:07;;;;;;;8.67;7.63;;;14.50;99.90;;;;;;5114904;28;20317;-78
2023/06/10 01:35:38;;;;;;;8.60;7.80;;;14.40;99.90;;;;;;5116099;28;20252;-78
2023/06/10 01:38:08;;;;;;;8.07;7.33;;;14.40;99.90;;;;;;5116021;28;20213;-79
2023/06/10 01:40:37;;;;;;;8.87;7.97;;;14.40;99.90;;;;;;5114855;28;20672;-79
2023/06/10 01:43:05;;;;;;;9.80;8.70;;;14.40;99.90;;;;;;5115573;28;20679;-77
2023/06/10 01:45:33;;;;;;;10.00;8.20;;;14.40;99.90;;;;;;5115540;28;20206;-77
2023/06/10 01:48:01;;;;;;;9.17;8.27;;;14.40;99.90;;;;;;5115779;28;20296;-79
2023/06/10 01:50:30;;;;;;;9.97;9.07;;;14.40;99.90;;;;;;5114783;27;20210;-78
2023/06/10 01:52:59;;;;;;;9.73;8.73;;;14.40;99.90;;;;;;5115348;28;20293;-77
2023/06/10 01:55:28;;;;;;;9.43;8.53;;;14.40;99.90;;;;;;5116105;28;20708;-77
2023/06/10 01:57:56;;;;;;;9.43;8.60;;;14.40;99.90;;;;;;5114320;28;20237;-77
2023/06/10 02:00:24;;;;;;;10.37;9.37;;;14.40;99.90;;;;;;5115792;28;20202;-78
2023/06/10 02:02:52;;;;;;;9.03;8.13;;;14.40;99.90;;;;;;5115175;28;20260;-78
2023/06/10 02:05:21;;;;;;;8.83;8.03;;;14.30;99.90;;;;;;5115273;28;20222;-79
2023/06/10 02:07:49;;;;;;;9.20;8.30;;;14.30;99.90;;;;;;5114315;28;20254;-78
2023/06/10 02:10:17;;;;;;;9.10;8.17;;;14.20;99.90;;;;;;5115251;28;20240;-79
2023/06/10 02:12:46;;;;;;;10.03;9.00;;;14.20;99.90;;;;;;5115070;28;20207;-78
2023/06/10 02:15:16;;;;;;;9.23;8.33;;;14.10;99.90;;;;;;5115607;28;20271;-78
2023/06/10 02:17:50;;;;;;;10.37;8.77;;;14.00;99.90;;;;;;5124327;28;20190;-78
2023/06/10 02:20:18;;;;;;;12.23;9.00;;;14.00;99.90;;;;;;5115244;28;20206;-79
2023/06/10 02:22:47;;;;;;;9.87;8.87;;;13.90;99.90;;;;;;5114900;28;20547;-78
2023/06/10 02:25:16;;;;;;;9.97;8.97;;;13.90;99.90;;;;;;5113922;28;20213;-78
2023/06/10 02:27:45;;;;;;;9.77;8.87;;;13.80;99.90;;;;;;5114920;28;20222;-76
2023/06/10 02:30:15;;;;;;;11.27;10.13;;;13.70;99.90;;;;;;5115102;28;20210;-77
2023/06/10 02:32:47;;;;;;;10.50;9.50;;;13.70;99.90;;;;;;5113665;28;20240;-78
2023/06/10 02:35:15;;;;;;;10.27;9.27;;;13.70;99.90;;;;;;5115347;28;20213;-76
2023/06/10 02:37:44;;;;;;;10.50;9.50;;;13.70;99.90;;;;;;5114740;28;20554;-79
2023/06/10 02:40:12;;;;;;;10.17;9.20;;;13.60;99.90;;;;;;5113808;28;20210;-78
2023/06/10 02:42:40;;;;;;;10.73;9.60;;;13.60;99.90;;;;;;5114229;28;20210;-78
2023/06/10 02:45:10;;;;;;;10.40;9.40;;;13.50;99.90;;;;;;5114589;28;20213;-76
2023/06/10 02:47:40;;;;;;;9.77;8.87;;;13.50;99.90;;;;;;5113223;28;20209;-76
2023/06/10 02:50:09;;;;;;;10.60;9.50;;;13.50;99.90;;;;;;5114774;28;20621;-77
2023/06/10 02:52:37;;;;;;;11.00;9.87;;;13.40;99.90;;;;;;5114234;28;20606;-77
2023/06/10 02:55:06;;;;;;;10.83;9.77;;;13.40;99.90;;;;;;5114603;28;20837;-78
2023/06/10 02:57:34;;;;;;;10.20;9.20;;;13.40;99.90;;;;;;5113684;28;20289;-77
2023/06/10 03:00:09;;;;;;;10.27;9.27;;;13.40;99.90;;;;;;5114419;28;20213;-78
2023/06/10 03:02:39;;;;;;;10.93;9.83;;;13.40;99.90;;;;;;5114180;28;20194;-77
2023/06/10 03:05:09;;;;;;;11.70;10.50;;;13.30;99.90;;;;;;5113104;28;20209;-78
2023/06/10 03:07:38;;;;;;;11.20;10.10;;;13.30;99.90;;;;;;5114237;28;20217;-77
2023/06/10 03:10:08;;;;;;;11.53;10.43;;;13.30;99.90;;;;;;5113876;28;20692;-76
2023/06/10 03:12:36;;;;;;;11.13;10.00;;;13.30;99.90;;;;;;5112996;28;20602;-76
2023/06/10 03:15:05;;;;;;;11.27;10.17;;;13.30;99.90;;;;;;5114424;28;20214;-78
2023/06/10 03:17:34;;;;;;;10.60;9.60;;;13.30;99.90;;;;;;5114148;28;20240;-78
2023/06/10 03:20:05;;;;;;;12.17;9.83;;;13.20;99.90;;;;;;5114122;28;20206;-76
2023/06/10 03:22:33;;;;;;;11.27;10.17;;;13.20;99.90;;;;;;5112916;27;20201;-76
2023/06/10 03:25:01;;;;;;;11.73;10.53;;;13.20;99.90;;;;;;5113995;28;20256;-78
2023/06/10 03:27:30;;;;;;;11.77;10.57;;;13.20;99.90;;;;;;5113555;27;20214;-77
2023/06/10 03:29:58;;;;;;;11.53;10.40;;;13.20;99.90;;;;;;5113894;28;20295;-78
2023/06/10 03:32:26;;;;;;;12.00;10.90;;;13.20;99.90;;;;;;5111880;28;20202;-78
2023/06/10 03:34:57;;;;;;;11.50;10.40;;;13.20;99.90;;;;;;5113902;28;20206;-78
2023/06/10 03:37:26;;;;;;;10.40;9.40;;;13.20;99.90;;;;;;5113836;28;20210;-78
2023/06/10 03:39:54;;;;;;;12.40;10.43;;;13.20;99.90;;;;;;5112466;28;20210;-79
2023/06/10 03:42:22;;;;;;;11.70;10.60;;;13.20;99.90;;;;;;5113269;28;20209;-78
2023/06/10 03:44:50;;;;;;;12.73;10.67;;;13.20;99.90;;;;;;5113769;28;20213;-79
2023/06/10 03:47:19;;;;;;;10.83;9.73;;;13.20;99.90;;;;;;5112310;28;20221;-78
2023/06/10 03:49:47;;;;;;;12.00;9.70;;;13.20;99.90;;;;;;5112489;28;20741;-78
2023/06/10 03:52:15;;;;;;;11.70;10.50;;;13.20;99.90;;;;;;5113376;28;20252;-77
2023/06/10 03:54:44;;;;;;;11.33;10.23;;;13.20;99.90;;;;;;5113308;28;20225;-78
2023/06/10 03:57:13;;;;;;;10.90;9.80;;;13.20;99.90;;;;;;5112473;28;20247;-78
2023/06/10 03:59:41;;;;;;;11.30;9.90;;;13.20;99.90;;;;;;5113067;28;20198;-78
2023/06/10 04:02:09;;;;;;;11.90;10.70;;;13.30;99.90;;;;;;5113065;28;20210;-76
2023/06/10 04:04:37;;;;;;;11.27;10.17;;;13.30;99.90;;;;;;5113637;28;20210;-77
2023/06/10 04:07:06;;;;;;;11.63;10.23;;;13.30;99.90;;;;;;5111913;28;20210;-77
2023/06/10 04:09:35;;;;;;;10.97;9.97;;;13.30;99.90;;;;;;5112684;28;20226;-79
2023/06/10 04:12:08;;;;;;;11.73;10.63;;;13.30;99.90;;;;;;5112929;28;20277;-80
2023/06/10 04:14:37;;;;;;;10.73;9.70;;;13.30;99.90;;;;;;5111959;28;20627;-77
2023/06/10 04:17:07;;;;;;;11.17;10.07;;;13.30;99.90;;;;;;5113035;28;20610;-76
2023/06/10 04:19:35;;;;;;;10.83;9.77;;;13.30;99.90;;;;;;5112612;28;20563;-77
2023/06/10 04:22:05;;;;;;;11.00;9.90;;;13.40;99.90;;;;;;5112611;28;20210;-79
2023/06/10 04:24:33;;;;;;;10.90;9.90;;;13.40;99.90;;;;;;5111806;28;20214;-77
2023/06/10 04:27:01;;;;;;;10.97;9.97;;;13.50;99.90;;;;;;5112739;28;20209;-78
2023/06/10 04:29:30;;;;;;;10.90;9.80;;;13.50;99.90;;;;;;5112541;28;20703;-77
2023/06/10 04:31:59;;;;;;;12.30;11.10;;;13.60;99.90;;;;;;5106565;28;20206;-78
2023/06/10 04:34:27;;;;;;;10.97;9.97;;;13.70;99.90;;;;;;5092474;28;20211;-77
2023/06/10 04:36:55;;;;;;;10.40;9.40;;;13.80;99.90;;;;;;5092204;28;20221;-77
2023/06/10 04:39:24;;;;;;;9.87;8.97;;;13.80;99.90;;;;;;5094349;28;20665;-77
2023/06/10 04:41:52;;;;;;;11.77;10.07;;;13.90;99.90;;;;;;5111379;28;20206;-77
2023/06/10 04:44:21;;;;;;;10.53;9.53;;;14.00;99.90;;;;;;5113016;28;20255;-76
2023/06/10 04:46:50;;;;;;;11.00;9.90;;;14.00;99.90;;;;;;5113123;28;20668;-77
2023/06/10 04:49:18;;;;;;;10.17;9.23;;;14.10;99.90;;;;;;5112071;28;20265;-78
2023/06/10 04:51:47;;;;;;;10.57;9.57;;;14.20;99.90;;;;;;5097779;28;20207;-77
2023/06/10 04:54:15;;;;;;;11.70;10.60;;;14.30;99.90;;;;;;5092636;28;20543;-76
2023/06/10 04:56:44;;;;;;;10.80;9.70;;;14.40;99.90;;;;;;5091992;28;20538;-78
2023/06/10 04:59:14;;;;;;;10.43;9.33;;;14.50;99.90;;;;;;5091289;28;20206;-79
2023/06/10 05:01:42;;;;;;;10.87;9.77;;;14.60;99.90;;;;;;5091748;28;20609;-78
2023/06/10 05:04:11;;;;;;;10.97;9.43;;;14.70;99.90;;;;;;5092030;28;20669;-79
2023/06/10 05:06:40;;;;;;;10.40;9.43;;;14.70;99.90;;;;;;5093475;28;20217;-77
2023/06/10 05:09:08;;;;;;;10.80;9.70;;;14.80;99.90;;;;;;5112163;28;20233;-78
2023/06/10 05:11:36;;;;;;;9.43;8.53;;;14.90;99.90;;;;;;5112110;28;20263;-77
2023/06/10 05:14:05;;;;;;;10.90;9.57;;;15.00;99.90;;;;;;5112311;28;20292;-79
2023/06/10 05:16:33;;;;;;;10.60;9.50;;;15.00;99.90;;;;;;5111476;28;20251;-78
2023/06/10 05:19:01;;;;;;;9.60;8.60;;;15.10;99.90;;;;;;5112433;28;20202;-76
2023/06/10 05:21:32;;;;;;;9.83;8.93;;;15.10;99.90;;;;;;5112374;28;20259;-77
2023/06/10 05:24:00;;;;;;;10.77;9.00;;;15.20;99.90;;;;;;5110517;28;20217;-78
2023/06/10 05:26:29;;;;;;;11.67;10.40;;;15.20;99.90;;;;;;5112374;28;20208;-77
2023/06/10 05:28:57;;;;;;;10.73;8.87;;;15.20;99.90;;;;;;5112253;28;20269;-78
2023/06/10 05:31:25;;;;;;;13.93;8.77;;;15.20;99.90;;;;;;5112110;28;20281;-76
2023/06/10 05:33:53;;;;;;;10.00;9.00;;;15.20;99.90;;;;;;5110210;28;20206;-76
2023/06/10 05:36:21;;;;;;;10.03;8.97;;;15.20;99.90;;;;;;5111925;28;20221;-76
2023/06/10 05:38:50;;;;;;;11.53;10.43;;;15.30;99.90;;;;;;5112041;28;20210;-76
2023/06/10 05:41:19;;;;;;;11.27;9.40;;;15.30;99.90;;;;;;5112529;28;20263;-76
2023/06/10 05:43:47;;;;;;;11.00;9.73;;;15.30;99.90;;;;;;5110494;28;20206;-77
2023/06/10 05:46:15;;;;;;;11.30;9.03;;;15.40;99.90;;;;;;5111911;28;20250;-77
2023/06/10 05:48:43;;;;;;;10.07;9.07;;;15.60;99.90;;;;;;5111662;28;20210;-78
2023/06/10 05:51:11;;;;;;;9.30;8.40;;;15.80;99.90;;;;;;5110689;28;20234;-76
2023/06/10 05:53:39;;;;;;;9.00;8.10;;;16.20;99.90;;;;;;5111528;28;20229;-78
2023/06/10 05:56:09;;;;;;;8.67;7.77;;;17.10;99.90;;;;;;5111810;28;20230;-79
2023/06/10 05:58:37;;;;;;;9.60;8.60;;;18.20;99.90;;;;;;5110805;28;20554;-78
2023/06/10 06:01:05;;;;;;;8.70;7.90;;;19.10;99.90;;;;;;5114693;28;20733;-78
2023/06/10 06:03:33;;;;;;;8.10;6.33;;;19.50;99.90;;;;;;5111888;28;20263;-78
2023/06/10 06:06:02;;;;;;;7.60;6.90;;;20.50;99.90;;;;;;5111751;28;20206;-77
2023/06/10 06:08:30;;;;;;;9.27;7.43;;;22.30;99.90;;;;;;5114783;28;20621;-79
2023/06/10 06:10:58;;;;;;;7.60;6.90;;;23.10;99.90;;;;;;5111492;28;20262;-78
2023/06/10 06:13:28;;;;;;;8.20;6.67;;;24.40;99.90;;;;;;5113130;28;20253;-77
2023/06/10 06:15:56;;;;;;;8.27;7.47;;;24.90;97.30;;;;;;5114380;28;20206;-76
2023/06/10 06:18:25;;;;;;;7.97;6.60;;;25.30;94.60;;;;;;5115391;28;20248;-78
2023/06/10 06:20:53;;;;;;;6.95;6.25;;;25.60;94.40;;;;;;5115501;28;20206;-77
2023/06/10 06:23:21;;;;;;;6.93;6.22;;;26.10;91.40;;;;;;5113699;28;20202;-76
2023/06/10 06:25:49;;;;;;;7.95;5.95;;;26.70;91.50;;;;;;5115165;28;20639;-78
2023/06/10 06:28:18;;;;;;;5.97;5.38;;;27.20;86.90;;;;;;5115367;28;20596;-76
2023/06/10 06:30:48;;;;;;;7.10;5.93;;;27.80;82.50;;;;;;5114886;28;20600;-76
2023/06/10 06:33:16;;;;;;;7.05;6.35;;;28.40;79.50;;;;;;5113811;28;20612;-76
2023/06/10 06:35:45;;;;;;;8.40;6.47;;;28.60;76.50;;;;;;5115241;28;20609;-78
2023/06/10 06:38:13;;;;;;;9.15;6.25;;;28.70;74.60;;;;;;5115290;28;20252;-77
2023/06/10 06:40:41;;;;;;;7.38;6.68;;;27.80;76.40;;;;;;5114852;28;20301;-76
2023/06/10 06:43:09;;;;;;;6.18;5.57;;;27.40;77.70;;;;;;5112550;28;20240;-77
2023/06/10 06:45:38;;;;;;;6.85;6.18;;;27.70;77.50;;;;;;5115295;28;20500;-76
2023/06/10 06:48:07;;;;;;;7.47;6.43;;;27.60;79.80;;;;;;5115257;28;20213;-76
2023/06/10 06:50:36;;;;;;;6.63;6.07;;;29.00;73.50;;;;;;5113631;28;20233;-76
2023/06/10 06:53:04;;;;;;;5.97;5.43;;;29.40;73.00;;;;;;5114590;28;20727;-79
2023/06/10 06:55:32;;;;;;;7.38;6.68;;;29.70;70.70;;;;;;5115091;28;20234;-76
2023/06/10 06:58:03;;;;;;;7.35;6.38;;;29.70;65.90;;;;;;5114958;28;20294;-77
2023/06/10 07:00:32;;;;;;;6.15;5.35;;;29.40;66.80;;;;;;5113790;28;20213;-77
2023/06/10 07:03:00;;;;;;;6.25;5.47;;;29.40;69.60;;;;;;5114620;28;20260;-77
2023/06/10 07:05:30;;;;;;;8.05;6.30;;;30.10;64.70;;;;;;5100130;28;20203;-78
2023/06/10 07:07:59;;;;;;;6.68;6.07;;;29.10;67.10;;;;;;5093962;28;20719;-80
2023/06/10 07:10:27;;;;;;;7.03;6.35;;;30.10;65.00;;;;;;5093445;28;20742;-78
2023/06/10 07:12:55;;;;;;;7.05;5.95;;;28.70;65.10;;;;;;5093654;28;20217;-76
2023/06/10 07:15:23;;;;;;;5.72;5.22;;;28.60;69.60;;;;;;5093431;28;20246;-78
2023/06/10 07:17:51;;;;;;;6.18;5.57;;;29.30;66.70;;;;;;5093831;28;20668;-76
2023/06/10 07:20:19;;;;;;;8.15;5.60;;;29.80;64.80;;;;;;5094013;28;20206;-76
2023/06/10 07:22:49;;;;;;;6.28;5.63;;;29.90;64.90;;;;;;5093334;28;20268;-77
2023/06/10 07:25:17;;;;;;;5.57;5.07;;;30.20;63.00;;;;;;5092982;28;20264;-79
2023/06/10 07:27:45;;;;;;;5.38;4.88;;;30.10;62.10;;;;;;5093933;28;20206;-77
2023/06/10 07:30:14;;;;;;;6.32;5.72;;;29.10;63.60;;;;;;5093871;28;20596;-80
2023/06/10 07:32:43;;;;;;;5.90;5.40;;;29.00;65.50;;;;;;5093374;28;20206;-77
2023/06/10 07:35:11;;;;;;;5.32;4.85;;;28.60;70.10;;;;;;5096151;28;20222;-77
2023/06/10 07:37:40;;;;;;;6.90;4.78;;;29.10;63.80;;;;;;5114146;28;20568;-77
2023/06/10 07:40:10;;;;;;;5.20;4.70;;;29.10;63.40;;;;;;5114039;28;20206;-77
2023/06/10 07:42:39;;;;;;;7.13;5.38;;;29.20;63.00;;;;;;5096995;28;20679;-76
2023/06/10 07:45:08;;;;;;;5.00;4.60;;;28.90;63.90;;;;;;5093113;28;20669;-78
2023/06/10 07:47:37;;;;;;;4.90;4.40;;;29.80;63.00;;;;;;5093416;28;20214;-77
2023/06/10 07:50:05;;;;;;;5.55;4.13;;;29.70;61.90;;;;;;5093395;28;20292;-77
2023/06/10 07:52:34;;;;;;;5.28;4.78;;;30.20;59.90;;;;;;5092709;28;20280;-78
2023/06/10 07:55:02;;;;;;;5.40;4.80;;;27.70;63.50;;;;;;5093075;28;20235;-78
2023/06/10 07:57:34;;;;;;;5.95;5.10;;;27.10;68.70;;;;;;5093062;28;20680;-77
2023/06/10 08:00:04;;;;;;;5.28;4.78;;;27.40;68.00;;;;;;5093182;28;20206;-76
2023/06/10 08:02:32;;;;;;;4.80;4.30;;;28.10;65.80;;;;;;5092528;28;20202;-76
2023/06/10 08:05:01;;;;;;;4.60;4.00;;;28.00;65.90;;;;;;5092711;28;20221;-77
2023/06/10 08:07:29;;;;;;;4.60;4.20;;;27.60;65.90;;;;;;5092927;28;20207;-77
2023/06/10 08:09:57;;;;;;;4.65;3.80;;;28.30;65.20;;;;;;5092201;28;20238;-78
2023/06/10 08:12:25;;;;;;;5.15;4.50;;;28.50;67.80;;;;;;5092350;28;20318;-77
2023/06/10 08:14:54;;;;;;;5.00;4.50;;;28.50;66.40;;;;;;5092937;28;20210;-77
2023/06/10 08:17:23;;;;;;;4.93;4.53;;;28.60;65.40;;;;;;5092624;28;20289;-78
2023/06/10 08:19:51;;;;;;;5.25;4.38;;;29.70;65.40;;;;;;5092390;28;20249;-78
2023/06/10 08:22:19;;;;;;;4.93;4.20;;;29.90;63.10;;;;;;5092428;28;20202;-79
2023/06/10 08:24:48;;;;;;;5.10;4.60;;;28.70;66.20;;;;;;5092610;28;20229;-76
2023/06/10 08:27:16;;;;;;;5.05;4.43;;;28.10;63.10;;;;;;5092094;28;20214;-79
2023/06/10 08:29:44;;;;;;;4.47;4.07;;;27.80;65.20;;;;;;5093760;28;20590;-74
2023/06/10 08:32:14;;;;;;;4.90;4.40;;;28.50;66.50;;;;;;5092445;28;20250;-76
2023/06/10 08:34:42;;;;;;;4.63;3.90;;;29.20;65.40;;;;;;5102486;28;20616;-78
2023/06/10 08:37:11;;;;;;;4.15;3.75;;;29.40;64.20;;;;;;5112720;28;20293;-75
2023/06/10 08:39:39;;;;;;;4.25;3.85;;;29.10;63.10;;;;;;5112928;28;20210;-76
2023/06/10 08:42:15;;;;;;;5.50;3.72;;;29.60;59.00;;;;;;5109987;28;20242;-77
2023/06/10 08:44:44;;;;;;;4.85;3.97;;;30.60;60.50;;;;;;5092537;28;20241;-76
2023/06/10 08:47:16;;;;;;;4.03;3.60;;;31.40;55.40;;;;;;5092376;28;20248;-77
2023/06/10 08:49:47;;;;;;;3.60;3.30;;;32.40;54.30;;;;;;5092891;28;20191;-75
2023/06/10 08:52:16;;;;;;;4.13;3.28;;;32.00;53.40;;;;;;5091832;28;20605;-76
2023/06/10 08:54:51;;;;;;;3.60;3.30;;;33.00;51.10;;;;;;5092340;28;20238;-77
2023/06/10 08:57:21;;;;;;;3.50;3.10;;;32.30;49.60;;;;;;5092244;28;20263;-76
2023/06/10 08:59:50;;;;;;;13.10;4.13;;;31.60;49.50;;;;;;5092263;28;20232;-76
2023/06/10 09:02:20;;;;;;;5.28;3.60;;;31.00;53.20;;;;;;5094443;28;20206;-77
2023/06/10 09:04:50;;;;;;;3.55;3.25;;;30.20;55.00;;;;;;5094109;28;20191;-78
2023/06/10 09:07:19;;;;;;;4.63;3.70;;;29.00;56.30;;;;;;5092640;28;20210;-77
2023/06/10 09:09:47;;;;;;;4.00;3.60;;;28.20;59.30;;;;;;5094313;28;20251;-79
2023/06/10 09:12:16;;;;;;;9.00;3.88;;;27.20;62.40;;;;;;5095505;28;20284;-76
2023/06/10 09:14:45;;;;;;;5.88;4.10;;;26.40;66.40;;;;;;5094507;28;20214;-77
2023/06/10 09:17:13;;;;;;;5.65;4.00;;;25.80;69.50;;;;;;5092616;28;20252;-78
2023/06/10 09:19:43;;;;;;;4.30;3.90;;;25.50;72.50;;;;;;5094495;28;20260;-75
2023/06/10 09:22:11;;;;;;;5.77;3.80;;;25.30;74.10;;;;;;5094466;28;20298;-74
2023/06/10 09:24:40;;;;;;;3.80;3.50;;;24.70;81.40;;;;;;5093152;28;20307;-75
2023/06/10 09:27:09;;;;;;;4.30;3.90;;;24.60;75.00;;;;;;5095109;28;20699;-75
2023/06/10 09:29:48;;;;;;;4.83;3.67;;;24.50;78.40;;;;;;5094353;28;20238;-78
2023/06/10 09:32:18;;;;;;;3.67;3.37;;;24.40;79.40;;;;;;5094264;28;20222;-78
2023/06/10 09:34:48;;;;;;;4.07;3.60;;;24.30;77.10;;;;;;5113949;28;20212;-78
2023/06/10 09:37:21;;;;;;;4.40;4.00;;;24.90;80.40;;;;;;5113200;28;20661;-78
2023/06/10 09:40:04;;;;;;;4.00;3.60;;;25.30;74.50;;;;;;5112114;28;20198;-78
2023/06/10 09:42:35;;;;;;;4.13;3.80;;;25.60;78.60;;;;;;5111670;28;20733;-76
2023/06/10 09:45:05;;;;;;;3.93;3.47;;;26.10;77.70;;;;;;5096260;28;20298;-77
2023/06/10 09:47:34;;;;;;;3.55;3.25;;;26.90;73.20;;;;;;5094956;28;20627;-76
2023/06/10 09:50:04;;;;;;;4.55;3.60;;;27.00;65.30;;;;;;5095696;28;20226;-78
2023/06/10 09:52:34;;;;;;;3.75;2.97;;;28.40;60.70;;;;;;5095346;28;20230;-76
2023/06/10 09:55:03;;;;;;;3.28;2.97;;;29.40;62.30;;;;;;5095815;28;20238;-77
2023/06/10 09:57:33;;;;;;;4.03;3.35;;;29.30;60.90;;;;;;5095599;28;20210;-76
2023/06/10 10:00:06;;;;;;;3.42;3.20;;;28.70;60.80;;;;;;5095111;28;20202;-77
2023/06/10 10:02:46;;;;;;;4.47;3.17;;;28.70;60.50;;;;;;5095108;28;20302;-75
2023/06/10 10:05:16;;;;;;;4.68;3.60;;;28.10;63.60;;;;;;5095565;28;20211;-77
2023/06/10 10:07:45;;;;;;;4.45;3.22;;;28.10;60.50;;;;;;5095136;28;20252;-77
2023/06/10 10:10:15;;;;;;;6.35;3.60;;;27.60;61.30;;;;;;5094347;28;20268;-77
2023/06/10 10:12:45;;;;;;;4.22;3.20;;;26.80;64.50;;;;;;5094970;28;20234;-76
2023/06/10 10:15:14;;;;;;;4.10;3.20;;;26.60;68.60;;;;;;5095187;28;20211;-77
2023/06/10 10:17:48;;;;;;;4.23;3.47;;;26.50;71.50;;;;;;5095160;28;20390;-77
2023/06/10 10:20:21;;;;;;;3.58;3.28;;;27.20;66.00;;;;;;5095440;28;20206;-78
2023/06/10 10:22:53;;;;;;;3.67;3.38;;;27.20;67.80;;;;;;5095206;28;20564;-77
2023/06/10 10:25:26;;;;;;;3.42;3.13;;;28.80;63.90;;;;;;5095017;28;20207;-77
2023/06/10 10:28:01;;;;;;;3.80;3.50;;;29.40;63.60;;;;;;5095150;28;20233;-78
2023/06/10 10:30:34;;;;;;;5.28;3.50;;;29.40;59.70;;;;;;5095975;28;20608;-77
2023/06/10 10:33:10;;;;;;;3.53;3.20;;;29.20;62.30;;;;;;5115822;28;20233;-75
2023/06/10 10:35:41;;;;;;;3.30;3.00;;;30.20;62.50;;;;;;5101683;28;20263;-79
2023/06/10 10:38:10;;;;;;;3.95;3.20;;;30.90;56.60;;;;;;5095831;28;20207;-77
2023/06/10 10:40:39;;;;;;;3.40;3.03;;;31.50;55.10;;;;;;5096636;28;20207;-76
2023/06/10 10:43:08;;;;;;;5.55;2.90;;;31.20;54.00;;;;;;5096392;28;20207;-78
2023/06/10 10:45:36;;;;;;;3.47;3.17;;;30.60;56.80;;;;;;5095993;28;20230;-77
2023/06/10 10:48:11;;;;;;;3.45;3.15;;;29.80;56.40;;;;;;5096885;28;20628;-77
2023/06/10 10:50:41;;;;;;;3.42;3.13;;;29.30;57.90;;;;;;5096649;28;20206;-76
2023/06/10 10:53:09;;;;;;;4.15;3.30;;;28.00;59.20;;;;;;5094941;28;20227;-78
2023/06/10 10:55:37;;;;;;;4.65;3.55;;;26.80;65.00;;;;;;5095699;28;20252;-78
2023/06/10 10:58:07;;;;;;;4.45;3.22;;;26.20;67.50;;;;;;5095894;28;20241;-75
2023/06/10 11:00:36;;;;;;;3.80;3.50;;;25.80;68.00;;;;;;5095787;28;20213;-78
2023/06/10 11:03:08;;;;;;;5.53;3.73;;;25.90;69.80;;;;;;5094748;28;20230;-77
2023/06/10 11:05:44;;;;;;;4.87;3.63;;;25.80;69.90;;;;;;5095787;28;20293;-76
2023/06/10 11:08:13;;;;;;;4.67;3.30;;;26.50;69.90;;;;;;5095341;28;20207;-79
2023/06/10 11:10:47;;;;;;;3.50;3.15;;;27.40;72.40;;;;;;5094636;28;20217;-77
2023/06/10 11:13:16;;;;;;;4.35;3.08;;;29.10;61.90;;;;;;5094572;28;20210;-77
2023/06/10 11:15:46;;;;;;;4.40;3.28;;;29.80;58.40;;;;;;5094213;28;20238;-77
2023/06/10 11:18:25;;;;;;;3.47;3.08;;;30.30;57.00;;;;;;5094196;28;20187;-76
2023/06/10 11:20:56;;;;;;;3.45;3.15;;;31.10;55.50;;;;;;5094004;28;20211;-77
2023/06/10 11:23:43;;;;;;;3.42;2.80;;;32.20;53.70;;;;;;5093558;28;20238;-78
2023/06/10 11:26:34;;;;;;;3.03;2.83;;;32.70;52.10;;;;;;5093889;28;20331;-77
2023/06/10 11:29:05;;;;;;;3.38;2.95;;;31.80;51.60;;;;;;5093683;28;20213;-78
2023/06/10 11:31:34;;;;;;;3.15;2.95;;;30.70;52.50;;;;;;5113050;28;20221;-78
2023/06/10 11:34:05;;;;;;;3.58;3.05;;;28.40;55.60;;;;;;5113854;28;20316;-76
2023/06/10 11:36:40;;;;;;;3.42;3.13;;;27.90;57.50;;;;;;5113829;28;20206;-75
2023/06/10 11:39:08;;;;;;;3.45;3.15;;;27.20;59.10;;;;;;5093760;28;20198;-78
2023/06/10 11:41:38;;;;;;;3.30;3.00;;;26.60;66.50;;;;;;5093566;28;20260;-78
2023/06/10 11:44:09;;;;;;;4.33;3.43;;;26.10;66.90;;;;;;5093919;28;20210;-77
2023/06/10 11:46:38;;;;;;;4.20;3.60;;;25.50;67.50;;;;;;5104009;28;20198;-76
2023/06/10 11:49:07;;;;;;;5.30;3.53;;;25.10;71.70;;;;;;5113783;28;20233;-78
2023/06/10 11:51:38;;;;;;;3.97;3.50;;;24.90;74.90;;;;;;5114187;28;20650;-78
2023/06/10 11:54:09;;;;;;;4.97;3.90;;;24.50;77.50;;;;;;5114330;28;20211;-79
2023/06/10 11:56:37;;;;;;;4.43;3.80;;;24.20;77.20;;;;;;5100428;28;20229;-78
2023/06/10 11:59:07;;;;;;;8.10;4.37;;;23.90;82.10;;;;;;5093638;28;20214;-78
2023/06/10 12:01:37;;;;;;;4.93;4.10;;;23.50;82.70;;;;;;5093725;28;20226;-79
2023/06/10 12:04:11;;;;;;;4.40;4.00;;;23.30;85.40;;;;;;5093136;28;20222;-79
2023/06/10 12:06:43;;;;;;;7.97;4.60;;;23.20;87.40;;;;;;5093666;28;20206;-78
2023/06/10 12:09:16;;;;;;;6.57;4.73;;;23.00;90.40;;;;;;5093428;28;20562;-77
2023/06/10 12:11:55;;;;;;;6.23;5.03;;;23.00;92.10;;;;;;5100768;28;20293;-76
2023/06/10 12:14:51;;;;;;;5.13;4.57;;;23.00;91.70;;;;;;5114842;28;20234;-79
2023/06/10 12:17:19;;;;;;;4.87;4.47;;;23.10;93.10;;;;;;5115374;28;20214;-80
2023/06/10 12:19:47;;;;;;;6.33;4.80;;;23.30;91.70;;;;;;5110485;28;20207;-77
2023/06/10 12:22:19;;;;;;;4.80;4.00;;;23.40;92.90;;;;;;5093553;28;20203;-77
2023/06/10 12:25:01;;;;;;;5.00;4.50;;;23.50;91.50;;;;;;5094605;28;20218;-78
2023/06/10 12:27:30;;;;;;;4.80;4.40;;;23.80;92.40;;;;;;5094142;28;20202;-80
2023/06/10 12:30:00;;;;;;;4.80;4.40;;;24.00;91.80;;;;;;5110706;28;20203;-76
2023/06/10 12:32:37;;;;;;;4.63;4.23;;;23.90;90.00;;;;;;5115765;28;20219;-78
2023/06/10 12:35:07;;;;;;;4.33;3.93;;;24.20;89.00;;;;;;5119025;28;20691;-80
2023/06/10 12:37:38;;;;;;;4.70;3.77;;;24.30;88.60;;;;;;5110772;28;20211;-79
2023/06/10 12:40:11;;;;;;;5.33;3.73;;;24.50;84.40;;;;;;5093499;28;20193;-80
2023/06/10 12:42:39;;;;;;;4.30;3.80;;;24.40;82.10;;;;;;5092720;28;20722;-76
2023/06/10 12:45:10;;;;;;;4.27;3.87;;;24.50;83.50;;;;;;5093538;28;20210;-77
2023/06/10 12:47:39;;;;;;;4.20;3.53;;;24.90;84.80;;;;;;5093507;28;20213;-75
2023/06/10 12:50:09;;;;;;;5.17;3.77;;;24.90;79.80;;;;;;5093637;28;20207;-77
2023/06/10 12:52:39;;;;;;;4.40;3.97;;;25.10;79.10;;;;;;5103736;28;20203;-77
2023/06/10 12:55:08;;;;;;;4.10;3.80;;;25.40;79.20;;;;;;5109790;28;20498;-77